Time,TemperatureF,DewpointF,PressureIn,WindDirection,WindDirectionDegrees,WindSpeedMPH,WindSpeedGustMPH,Humidity,HourlyPrecipIn,Conditions,Clouds,dailyrainin,SolarRadiationWatts/m^2,SoftwareType,DateUTC
2013-07-18 00:00:00,67.0,34.0,-100.00,NNW,330,0.0,5.0,29,0.00,,,0.00,0.000000,,2013-07-18 07:00:00,
2013-07-18 00:32:00,67.0,34.0,-100.00,NNW,330,0.0,5.0,29,0.00,,,0.00,0.000000,,2013-07-18 07:32:00,
2013-07-18 00:42:00,67.0,34.0,-100.00,NNW,330,0.0,5.0,29,0.00,,,0.00,0.000000,,2013-07-18 07:42:00,
2013-07-18 00:52:00,67.0,34.0,-100.00,NNW,330,0.0,5.0,29,0.00,,,0.00,0.000000,,2013-07-18 07:52:00,
2013-07-18 03:22:00,62.0,35.0,-100.00,North,353,1.0,4.0,37,-99.99,,,0.00,0.000000,,2013-07-18 10:22:00,
2013-07-18 03:32:00,62.0,35.0,-100.00,North,353,1.0,4.0,37,-99.99,,,0.00,0.000000,,2013-07-18 10:32:00,
2013-07-18 03:43:00,62.0,35.0,-100.00,North,353,1.0,4.0,37,-99.99,,,0.00,0.000000,,2013-07-18 10:43:00,
2013-07-18 03:52:00,62.0,35.0,-100.00,North,353,1.0,4.0,37,-99.99,,,0.00,0.000000,,2013-07-18 10:52:00,
2013-07-18 04:00:00,62.0,37.0,-100.00,North,358,2.0,4.0,39,-99.99,,,0.00,0.000000,,2013-07-18 11:00:00,
2013-07-18 05:00:00,62.0,39.0,-100.00,North,8,2.0,5.0,43,0.00,,,0.00,0.000000,,2013-07-18 12:00:00,
2013-07-18 05:42:00,62.0,39.0,-100.00,North,8,2.0,5.0,43,0.00,,,0.00,0.000000,,2013-07-18 12:42:00,
2013-07-18 05:52:00,62.0,39.0,-100.00,North,8,2.0,5.0,43,0.00,,,0.00,0.000000,,2013-07-18 12:52:00,
2013-07-18 06:43:00,61.0,40.0,-100.00,North,2,2.0,4.0,45,0.00,,,0.00,0.000000,,2013-07-18 13:43:00,
2013-07-18 06:53:00,61.0,40.0,-100.00,North,2,2.0,4.0,45,0.00,,,0.00,0.000000,,2013-07-18 13:53:00,
2013-07-18 07:33:00,59.0,33.0,-100.00,NE,35,1.0,3.0,38,-99.99,,,-99.99,0.000000,,2013-07-18 14:33:00,
2013-07-18 07:43:00,59.0,33.0,-100.00,NE,35,1.0,3.0,38,-99.99,,,-99.99,0.000000,,2013-07-18 14:43:00,
2013-07-18 08:00:00,65.0,31.0,-100.00,WNW,301,0.0,4.0,28,0.00,,,-99.99,59.000000,,2013-07-18 15:00:00,
2013-07-18 08:32:00,65.0,31.0,-100.00,WNW,301,0.0,4.0,28,0.00,,,-99.99,59.000000,,2013-07-18 15:32:00,
2013-07-18 08:43:00,65.0,31.0,-100.00,WNW,301,0.0,4.0,28,0.00,,,-99.99,59.000000,,2013-07-18 15:43:00,
2013-07-18 09:00:00,73.0,31.0,-100.00,North,1,1.0,3.0,21,0.00,,,0.00,297.000000,,2013-07-18 16:00:00,
2013-07-18 09:32:00,73.0,31.0,-100.00,North,1,1.0,3.0,21,0.00,,,0.00,297.000000,,2013-07-18 16:32:00,
2013-07-18 09:42:00,73.0,31.0,-100.00,North,1,1.0,3.0,21,0.00,,,0.00,297.000000,,2013-07-18 16:42:00,
2013-07-18 09:52:00,73.0,31.0,-100.00,North,1,1.0,3.0,21,0.00,,,0.00,297.000000,,2013-07-18 16:52:00,
2013-07-18 10:00:00,80.0,31.0,-100.00,NE,42,2.0,4.0,17,0.00,,,0.00,534.000000,,2013-07-18 17:00:00,
2013-07-18 10:33:00,80.0,31.0,-100.00,NE,42,2.0,4.0,17,0.00,,,0.00,534.000000,,2013-07-18 17:33:00,
2013-07-18 10:43:00,80.0,31.0,-100.00,NE,42,2.0,4.0,17,0.00,,,0.00,534.000000,,2013-07-18 17:43:00,
2013-07-18 10:52:00,80.0,31.0,-100.00,NE,42,2.0,4.0,17,0.00,,,0.00,534.000000,,2013-07-18 17:52:00,
2013-07-18 11:00:00,85.0,25.0,-100.00,ENE,71,4.0,6.0,11,0.00,,,0.00,737.000000,,2013-07-18 18:00:00,
2013-07-18 11:32:00,85.0,25.0,-100.00,ENE,71,4.0,6.0,11,0.00,,,0.00,737.000000,,2013-07-18 18:32:00,
2013-07-18 11:43:00,85.0,25.0,-100.00,ENE,71,4.0,6.0,11,0.00,,,0.00,737.000000,,2013-07-18 18:43:00,
2013-07-18 11:52:00,85.0,25.0,-100.00,ENE,71,4.0,6.0,11,0.00,,,0.00,737.000000,,2013-07-18 18:52:00,
2013-07-18 12:00:00,88.0,16.0,-100.00,SE,140,3.0,9.0,7,0.00,,,0.00,908.000000,,2013-07-18 19:00:00,
2013-07-18 12:32:00,88.0,16.0,-100.00,SE,140,3.0,9.0,7,0.00,,,0.00,908.000000,,2013-07-18 19:32:00,
2013-07-18 12:43:00,88.0,16.0,-100.00,SE,140,3.0,9.0,7,0.00,,,0.00,908.000000,,2013-07-18 19:43:00,
2013-07-18 12:53:00,88.0,16.0,-100.00,SE,140,3.0,9.0,7,0.00,,,0.00,908.000000,,2013-07-18 19:53:00,
2013-07-18 13:00:00,95.0,14.0,-100.00,SSE,150,3.0,12.0,5,0.00,,,0.00,1034.000000,,2013-07-18 20:00:00,
2013-07-18 13:32:00,95.0,14.0,-100.00,SSE,150,3.0,12.0,5,0.00,,,0.00,1034.000000,,2013-07-18 20:32:00,
2013-07-18 13:43:00,95.0,14.0,-100.00,SSE,150,3.0,12.0,5,0.00,,,0.00,1034.000000,,2013-07-18 20:43:00,
2013-07-18 13:52:00,95.0,14.0,-100.00,SSE,150,3.0,12.0,5,0.00,,,0.00,1034.000000,,2013-07-18 20:52:00,
2013-07-18 14:32:00,97.0,19.0,-100.00,WNW,288,4.0,14.0,6,0.00,,,0.00,1102.000000,,2013-07-18 21:32:00,
2013-07-18 14:43:00,97.0,19.0,-100.00,WNW,288,4.0,14.0,6,0.00,,,0.00,1102.000000,,2013-07-18 21:43:00,
2013-07-18 14:52:00,97.0,19.0,-100.00,WNW,288,4.0,14.0,6,0.00,,,0.00,1102.000000,,2013-07-18 21:52:00,
2013-07-18 15:32:00,97.0,19.0,-100.00,SSW,194,3.0,11.0,6,0.00,,,0.00,1086.000000,,2013-07-18 22:32:00,
2013-07-18 15:43:00,97.0,19.0,-100.00,SSW,194,3.0,11.0,6,0.00,,,0.00,1086.000000,,2013-07-18 22:43:00,
2013-07-18 15:53:00,97.0,19.0,-100.00,SSW,194,3.0,11.0,6,0.00,,,0.00,1086.000000,,2013-07-18 22:53:00,
2013-07-18 16:00:00,98.0,20.0,-100.00,SW,233,3.0,14.0,6,0.00,,,0.00,1008.000000,,2013-07-18 23:00:00,
2013-07-18 16:32:00,98.0,20.0,-100.00,SW,233,3.0,14.0,6,0.00,,,0.00,1008.000000,,2013-07-18 23:32:00,
2013-07-18 16:42:00,98.0,20.0,-100.00,SW,233,3.0,14.0,6,0.00,,,0.00,1008.000000,,2013-07-18 23:42:00,
2013-07-18 16:52:00,98.0,20.0,-100.00,SW,233,3.0,14.0,6,0.00,,,0.00,1008.000000,,2013-07-18 23:52:00,
2013-07-18 17:00:00,98.0,23.0,-100.00,East,88,2.0,11.0,7,0.00,,,0.00,869.000000,,2013-07-19 00:00:00,
2013-07-18 17:32:00,98.0,23.0,-100.00,East,88,2.0,11.0,7,0.00,,,0.00,869.000000,,2013-07-19 00:32:00,
2013-07-18 17:43:00,98.0,23.0,-100.00,East,88,2.0,11.0,7,0.00,,,0.00,869.000000,,2013-07-19 00:43:00,
2013-07-18 17:52:00,98.0,23.0,-100.00,East,88,2.0,11.0,7,0.00,,,0.00,869.000000,,2013-07-19 00:52:00,
2013-07-18 18:52:00,96.0,35.0,-100.00,WNW,286,6.0,15.0,12,-99.99,,,0.00,693.000000,,2013-07-19 01:52:00,
2013-07-18 19:00:00,91.0,42.0,-100.00,WNW,286,3.0,13.0,18,-99.99,,,0.00,458.000000,,2013-07-19 02:00:00,
2013-07-18 19:32:00,91.0,42.0,-100.00,WNW,286,3.0,13.0,18,-99.99,,,0.00,458.000000,,2013-07-19 02:32:00,
2013-07-18 19:42:00,91.0,42.0,-100.00,WNW,286,3.0,13.0,18,-99.99,,,0.00,458.000000,,2013-07-19 02:42:00,
2013-07-18 19:52:00,91.0,42.0,-100.00,WNW,286,3.0,13.0,18,-99.99,,,0.00,458.000000,,2013-07-19 02:52:00,
2013-07-18 20:00:00,83.0,39.0,-100.00,NW,313,1.0,11.0,21,-99.99,,,0.00,55.000000,,2013-07-19 03:00:00,
2013-07-18 20:32:00,83.0,39.0,-100.00,NW,313,1.0,11.0,21,-99.99,,,0.00,55.000000,,2013-07-19 03:32:00,
2013-07-18 20:43:00,83.0,39.0,-100.00,NW,313,1.0,11.0,21,-99.99,,,0.00,55.000000,,2013-07-19 03:43:00,
2013-07-18 20:52:00,83.0,39.0,-100.00,NW,313,1.0,11.0,21,-99.99,,,0.00,55.000000,,2013-07-19 03:52:00,
2013-07-18 21:00:00,75.0,39.0,-100.00,NW,320,1.0,8.0,27,0.00,,,0.00,22.000000,,2013-07-19 04:00:00,
2013-07-18 21:33:00,75.0,39.0,-100.00,NW,320,1.0,8.0,27,0.00,,,0.00,22.000000,,2013-07-19 04:33:00,
2013-07-18 21:44:00,75.0,39.0,-100.00,NW,320,1.0,8.0,27,0.00,,,0.00,22.000000,,2013-07-19 04:44:00,
2013-07-18 21:52:00,75.0,39.0,-100.00,NW,320,1.0,8.0,27,0.00,,,0.00,22.000000,,2013-07-19 04:52:00,
2013-07-18 22:00:00,72.0,39.0,-100.00,North,353,1.0,4.0,30,0.00,,,0.00,1.000000,,2013-07-19 05:00:00,
2013-07-18 22:32:00,72.0,39.0,-100.00,North,353,1.0,4.0,30,0.00,,,0.00,1.000000,,2013-07-19 05:32:00,
2013-07-18 22:43:00,72.0,39.0,-100.00,North,353,1.0,4.0,30,0.00,,,0.00,1.000000,,2013-07-19 05:43:00,
2013-07-18 22:53:00,72.0,39.0,-100.00,North,353,1.0,4.0,30,0.00,,,0.00,1.000000,,2013-07-19 05:53:00,
2013-07-18 23:00:00,70.0,36.0,-100.00,West,269,2.0,4.0,29,0.00,,,0.00,0.000000,,2013-07-19 06:00:00,
2013-07-18 23:33:00,70.0,36.0,-100.00,West,269,2.0,4.0,29,0.00,,,0.00,0.000000,,2013-07-19 06:33:00,
2013-07-18 23:43:00,70.0,36.0,-100.00,West,269,2.0,4.0,29,0.00,,,0.00,0.000000,,2013-07-19 06:43:00,
2013-07-18 23:52:00,70.0,36.0,-100.00,West,269,2.0,4.0,29,0.00,,,0.00,0.000000,,2013-07-19 06:52:00,